createdAt,value
2023-04-12T00:00:18.053Z,87.41
2023-04-12T00:02:20.733Z,87.47
2023-04-12T00:04:27.673Z,87.23
2023-04-12T00:06:32.811Z,87.18
2023-04-12T00:08:35.736Z,87.45
2023-04-12T00:10:38.455Z,87.80
2023-04-12T00:12:41.386Z,88.01
2023-04-12T00:14:43.930Z,87.74
2023-04-12T00:16:46.546Z,88.23
2023-04-12T00:18:49.136Z,88.26
2023-04-12T00:20:53.388Z,87.69
2023-04-12T00:22:57.869Z,88.23
2023-04-12T00:25:00.281Z,88.72
2023-04-12T00:27:02.917Z,87.96
2023-04-12T00:29:05.476Z,88.28
2023-04-12T00:31:07.972Z,88.95
2023-04-12T00:33:10.571Z,89.35
2023-04-12T00:35:13.124Z,88.89
2023-04-12T00:37:17.020Z,88.97
2023-04-12T00:39:19.622Z,88.94
2023-04-12T00:41:24.480Z,89.64
2023-04-12T00:43:28.191Z,89.10
2023-04-12T00:45:31.520Z,89.15
2023-04-12T00:47:35.318Z,88.83
2023-04-12T00:49:37.907Z,89.54
2023-04-12T00:51:40.970Z,89.45
2023-04-12T00:53:45.030Z,89.38
2023-04-12T00:55:47.761Z,90.53
2023-04-12T00:57:50.331Z,89.86
2023-04-12T00:59:53.442Z,90.76
2023-04-12T01:01:56.984Z,90.87
2023-04-12T01:04:01.558Z,91.17
2023-04-12T01:06:09.911Z,90.59
2023-04-12T01:08:16.091Z,90.86
2023-04-12T01:10:27.713Z,90.95
2023-04-12T01:12:37.038Z,90.86
2023-04-12T01:14:51.527Z,91.68
2023-04-12T01:16:59.015Z,90.73
2023-04-12T01:19:05.218Z,91.58
2023-04-12T01:21:10.107Z,91.09
2023-04-12T01:23:19.436Z,90.83
2023-04-12T01:25:36.948Z,91.35
2023-04-12T01:27:43.768Z,92.04
2023-04-12T01:29:50.277Z,91.32
2023-04-12T01:31:54.760Z,92.05
2023-04-12T01:33:59.957Z,92.32
2023-04-12T01:36:06.361Z,92.49
2023-04-12T01:38:10.589Z,91.32
2023-04-12T01:40:13.923Z,91.27
2023-04-12T01:42:19.329Z,91.22
2023-04-12T01:44:23.323Z,92.53
2023-04-12T01:46:27.838Z,92.34
2023-04-12T01:48:30.312Z,91.98
2023-04-12T01:50:36.351Z,91.63
2023-04-12T01:52:41.593Z,92.68
2023-04-12T01:54:44.946Z,91.85
2023-04-12T01:56:51.145Z,92.36
2023-04-12T01:58:54.283Z,91.40
2023-04-12T02:01:00.249Z,91.42
2023-04-12T02:03:03.838Z,92.10
2023-04-12T02:05:08.429Z,92.64
2023-04-12T02:07:11.721Z,91.67
2023-04-12T02:09:14.289Z,92.38
2023-04-12T02:11:16.820Z,92.25
2023-04-12T02:13:20.021Z,92.41
2023-04-12T02:15:22.782Z,92.33
2023-04-12T02:17:26.771Z,92.04
2023-04-12T02:19:29.496Z,92.18
2023-04-12T02:21:39.891Z,91.78
2023-04-12T02:23:44.339Z,92.62
2023-04-12T02:25:47.118Z,91.64
2023-04-12T02:27:51.605Z,92.82
2023-04-12T02:29:54.163Z,92.08
2023-04-12T02:31:56.959Z,92.53
2023-04-12T02:34:03.878Z,92.36
2023-04-12T02:36:10.559Z,92.60
2023-04-12T02:38:13.218Z,93.13
2023-04-12T02:40:17.679Z,91.58
2023-04-12T02:42:20.240Z,91.59
2023-04-12T02:44:24.653Z,92.05
2023-04-12T02:46:43.328Z,92.65
2023-04-12T02:48:46.581Z,92.32
2023-04-12T02:50:50.658Z,91.88
2023-04-12T02:52:57.098Z,92.31
2023-04-12T02:54:59.955Z,92.42
2023-04-12T02:57:02.689Z,92.22
2023-04-12T02:59:13.266Z,92.47
2023-04-12T03:01:36.101Z,92.14
2023-04-12T03:03:56.979Z,93.67
2023-04-12T03:06:14.786Z,92.79
2023-04-12T03:08:17.963Z,93.52
2023-04-12T03:10:30.237Z,93.90
2023-04-12T03:12:38.069Z,93.01
2023-04-12T03:14:56.267Z,93.04
2023-04-12T03:17:01.961Z,93.91
2023-04-12T03:19:06.428Z,93.76
2023-04-12T03:21:08.934Z,92.67
2023-04-12T03:23:13.339Z,94.07
2023-04-12T03:25:20.357Z,94.12
2023-04-12T03:27:29.885Z,92.81
2023-04-12T03:29:32.429Z,93.10
2023-04-12T03:31:35.445Z,93.56
2023-04-12T03:33:43.314Z,94.33
2023-04-12T03:35:55.495Z,94.31
2023-04-12T03:37:58.213Z,94.10
2023-04-12T03:40:03.401Z,94.40
2023-04-12T03:42:06.049Z,94.00
2023-04-12T03:44:09.334Z,93.99
2023-04-12T03:46:12.013Z,93.43
2023-04-12T03:48:14.944Z,94.08
2023-04-12T03:50:19.265Z,94.12
2023-04-12T03:52:28.806Z,94.05
2023-04-12T03:54:31.678Z,92.66
2023-04-12T03:56:41.410Z,93.80
2023-04-12T03:58:50.765Z,93.53
2023-04-12T04:00:55.335Z,92.95
2023-04-12T04:02:59.050Z,94.07
2023-04-12T04:05:02.791Z,94.06
2023-04-12T04:07:05.934Z,94.04
2023-04-12T04:09:15.955Z,92.56
2023-04-12T04:11:18.924Z,93.57
2023-04-12T04:13:28.171Z,92.82
2023-04-12T04:15:35.904Z,94.04
2023-04-12T04:17:39.461Z,93.42
2023-04-12T04:19:42.345Z,93.17
2023-04-12T04:21:45.501Z,94.01
2023-04-12T04:23:48.889Z,92.37
2023-04-12T04:25:54.118Z,93.24
2023-04-12T04:27:59.879Z,92.12
2023-04-12T04:30:07.679Z,93.41
2023-04-12T04:32:13.071Z,91.95
2023-04-12T04:34:16.577Z,92.75
2023-04-12T04:36:22.140Z,92.90
2023-04-12T04:38:29.140Z,93.33
2023-04-12T04:40:41.302Z,94.19
2023-04-12T04:42:46.790Z,93.88
2023-04-12T04:44:51.870Z,94.21
2023-04-12T04:46:56.980Z,94.14
2023-04-12T04:49:00.478Z,93.01
2023-04-12T04:51:03.166Z,94.03
2023-04-12T04:53:05.730Z,94.02
2023-04-12T04:55:11.528Z,93.98
2023-04-12T04:57:16.699Z,94.87
2023-04-12T04:59:20.541Z,95.01
2023-04-12T05:01:26.388Z,94.79
2023-04-12T05:03:31.151Z,93.50
2023-04-12T05:05:35.899Z,93.86
2023-04-12T05:07:43.910Z,93.91
2023-04-12T05:09:46.758Z,93.92
2023-04-12T05:11:49.566Z,94.62
2023-04-12T05:13:52.292Z,94.83
2023-04-12T05:15:54.998Z,95.16
2023-04-12T05:17:58.193Z,93.78
2023-04-12T05:20:02.560Z,94.92
2023-04-12T05:22:07.585Z,94.04
2023-04-12T05:24:10.096Z,93.28
2023-04-12T05:26:14.323Z,93.65
2023-04-12T05:28:21.214Z,94.98
2023-04-12T05:30:23.776Z,94.85
2023-04-12T05:32:26.977Z,93.86
2023-04-12T05:34:29.856Z,93.33
2023-04-12T05:36:34.986Z,93.59
2023-04-12T05:38:39.410Z,94.86
2023-04-12T05:40:50.258Z,93.53
2023-04-12T05:42:57.506Z,93.80
2023-04-12T05:45:01.781Z,94.02
2023-04-12T05:47:05.627Z,93.20
2023-04-12T05:49:08.771Z,91.82
2023-04-12T05:51:11.258Z,90.18
2023-04-12T05:53:15.499Z,91.57
2023-04-12T05:55:18.817Z,91.18
2023-04-12T05:57:21.448Z,91.44
2023-04-12T05:59:24.835Z,90.86
2023-04-12T06:01:32.514Z,89.51
2023-04-12T06:03:36.369Z,88.09
2023-04-12T06:05:44.270Z,87.94
2023-04-12T06:07:50.000Z,88.15
2023-04-12T06:09:54.103Z,83.17
2023-04-12T06:11:58.641Z,80.26
2023-04-12T06:14:01.880Z,74.74
2023-04-12T06:16:05.383Z,71.29
2023-04-12T06:18:08.314Z,67.93
2023-04-12T06:20:11.602Z,63.34
2023-04-12T06:22:15.750Z,65.16
2023-04-12T06:24:19.613Z,64.11
2023-04-12T06:26:24.440Z,62.45
2023-04-12T06:28:26.972Z,59.68
2023-04-12T06:30:29.941Z,61.33
2023-04-12T06:32:32.917Z,59.87
2023-04-12T06:34:37.068Z,57.95
2023-04-12T06:36:45.484Z,56.58
2023-04-12T06:38:48.917Z,56.09
2023-04-12T06:40:51.374Z,55.00
2023-04-12T06:42:55.653Z,54.18
2023-04-12T06:44:58.574Z,56.41
2023-04-12T06:47:01.117Z,62.40
2023-04-12T06:49:03.674Z,59.63
2023-04-12T06:51:06.382Z,60.59
2023-04-12T06:53:08.829Z,57.65
2023-04-12T06:55:11.454Z,55.23
2023-04-12T06:57:14.036Z,53.92
2023-04-12T06:59:18.086Z,52.29
2023-04-12T07:01:20.819Z,56.31
2023-04-12T07:03:24.948Z,59.33
2023-04-12T07:05:27.403Z,58.84
2023-04-12T07:07:29.943Z,56.95
2023-04-12T07:09:35.504Z,60.13
2023-04-12T07:11:38.173Z,59.10
2023-04-12T07:13:40.777Z,56.85
2023-04-12T07:15:45.105Z,57.52
2023-04-12T07:17:47.613Z,56.50
2023-04-12T07:19:51.105Z,54.65
2023-04-12T07:21:53.651Z,54.91
2023-04-12T07:23:56.386Z,56.63
2023-04-12T07:25:59.656Z,56.69
2023-04-12T07:28:02.415Z,53.43
2023-04-12T07:30:05.070Z,52.69
2023-04-12T07:32:09.365Z,52.33
2023-04-12T07:34:12.122Z,52.22
2023-04-12T07:36:16.908Z,49.02
2023-04-12T07:38:19.687Z,48.23
2023-04-12T07:40:22.268Z,50.45
2023-04-12T07:42:25.203Z,49.66
2023-04-12T07:44:27.828Z,51.35
2023-04-12T07:46:30.339Z,49.41
2023-04-12T07:48:34.457Z,54.37
2023-04-12T07:50:37.504Z,52.88
2023-04-12T07:52:40.063Z,50.03
2023-04-12T07:54:43.004Z,47.85
2023-04-12T07:56:58.008Z,48.21
2023-04-12T07:59:01.041Z,44.52
2023-04-12T08:01:03.865Z,43.19
2023-04-12T08:03:06.648Z,45.79
2023-04-12T08:05:11.181Z,50.77
2023-04-12T08:07:13.756Z,52.63
2023-04-12T08:09:16.399Z,48.85
2023-04-12T08:11:18.888Z,48.65
2023-04-12T08:13:21.755Z,46.16
2023-04-12T08:15:24.489Z,51.91
2023-04-12T08:17:29.010Z,50.94
2023-04-12T08:19:31.809Z,53.64
2023-04-12T08:21:36.057Z,49.49
2023-04-12T08:23:38.542Z,51.51
2023-04-12T08:25:41.332Z,51.29
2023-04-12T08:27:44.150Z,48.06
2023-04-12T08:29:46.999Z,47.09
2023-04-12T08:31:49.619Z,46.25
2023-04-12T08:33:52.320Z,46.21
2023-04-12T08:35:55.474Z,48.72
2023-04-12T08:38:00.686Z,50.42
2023-04-12T08:40:05.194Z,54.73
2023-04-12T08:42:07.778Z,53.83
2023-04-12T08:44:11.688Z,54.32
2023-04-12T08:46:16.118Z,55.15
2023-04-12T08:48:18.982Z,49.43
2023-04-12T08:50:21.638Z,47.32
2023-04-12T08:52:24.126Z,48.61
2023-04-12T08:54:29.280Z,47.66
2023-04-12T08:56:32.068Z,47.82
2023-04-12T08:58:34.820Z,47.95
2023-04-12T09:00:38.337Z,48.15
2023-04-12T09:02:43.756Z,50.20
2023-04-12T09:04:49.732Z,51.25
2023-04-12T09:06:52.675Z,53.80
2023-04-12T09:08:55.967Z,50.40
2023-04-12T09:11:00.112Z,51.88
2023-04-12T09:13:03.643Z,50.91
2023-04-12T09:15:10.048Z,51.39
2023-04-12T09:17:22.550Z,53.88
2023-04-12T09:19:31.454Z,50.97
2023-04-12T09:21:37.340Z,50.19
2023-04-12T09:23:40.075Z,54.29
2023-04-12T09:25:45.599Z,54.34
2023-04-12T09:27:50.483Z,50.93
2023-04-12T09:30:06.538Z,52.81
2023-04-12T09:32:09.732Z,54.71
2023-04-12T09:34:12.395Z,50.68
2023-04-12T09:36:17.221Z,50.39
2023-04-12T09:38:19.831Z,53.71
2023-04-12T09:40:24.378Z,55.96
2023-04-12T09:42:33.200Z,54.15
2023-04-12T09:44:37.946Z,53.64
2023-04-12T09:46:50.434Z,53.25
2023-04-12T09:48:55.704Z,52.29
2023-04-12T09:50:59.252Z,51.41
2023-04-12T09:53:02.678Z,50.92
2023-04-12T09:55:09.739Z,52.56
2023-04-12T09:57:12.734Z,55.32
2023-04-12T09:59:16.964Z,57.44
2023-04-12T10:01:23.246Z,56.55
2023-04-12T10:03:26.551Z,54.83
2023-04-12T10:05:29.669Z,55.23
2023-04-12T10:07:36.733Z,54.54
2023-04-12T10:09:40.971Z,56.62
2023-04-12T10:11:45.013Z,56.27
2023-04-12T10:13:48.543Z,55.68
2023-04-12T10:15:52.381Z,53.43
2023-04-12T10:17:57.905Z,56.99
2023-04-12T10:20:01.006Z,54.73
2023-04-12T10:22:03.634Z,52.24
2023-04-12T10:24:07.487Z,52.36
2023-04-12T10:26:10.225Z,51.83
2023-04-12T10:28:16.540Z,54.08
2023-04-12T10:30:23.288Z,53.83
2023-04-12T10:32:35.383Z,49.40
2023-04-12T10:34:42.833Z,53.03
2023-04-12T10:36:51.996Z,51.47
2023-04-12T10:39:11.297Z,53.05
2023-04-12T10:41:15.867Z,52.95
2023-04-12T10:43:25.477Z,52.61
2023-04-12T10:45:38.355Z,53.02
2023-04-12T10:48:07.911Z,50.92
2023-04-12T10:50:27.014Z,53.57
2023-04-12T10:52:37.066Z,51.11
2023-04-12T10:54:40.849Z,51.81
2023-04-12T10:56:46.994Z,50.99
2023-04-12T10:59:16.919Z,51.30
2023-04-12T11:01:22.848Z,50.65
2023-04-12T11:03:28.585Z,48.73
2023-04-12T11:05:55.333Z,49.07
2023-04-12T11:08:19.758Z,49.06
2023-04-12T11:10:29.009Z,47.37
2023-04-12T11:12:34.810Z,49.94
2023-04-12T11:14:38.312Z,52.59
2023-04-12T11:17:26.256Z,51.21
2023-04-12T11:19:30.983Z,48.13
2023-04-12T11:21:43.239Z,49.35
2023-04-12T11:23:47.065Z,49.87
2023-04-12T11:25:55.471Z,49.04
2023-04-12T11:27:58.678Z,48.86
2023-04-12T11:30:03.620Z,47.73
2023-04-12T11:32:13.153Z,48.31
2023-04-12T11:34:23.839Z,49.65
2023-04-12T11:36:28.037Z,45.61
2023-04-12T11:38:32.859Z,45.07
2023-04-12T11:42:53.921Z,46.26
2023-04-12T11:45:00.998Z,46.39
2023-04-12T11:47:06.985Z,44.15
2023-04-12T11:49:10.640Z,42.83
2023-04-12T11:51:19.849Z,43.66
2023-04-12T11:53:30.546Z,44.43
2023-04-12T11:55:34.796Z,44.35
2023-04-12T11:57:41.625Z,44.30
2023-04-12T11:59:45.335Z,44.32
2023-04-12T12:01:52.103Z,41.88
2023-04-12T12:03:55.609Z,41.46
2023-04-12T12:06:00.809Z,43.63
2023-04-12T12:08:09.140Z,42.84
2023-04-12T12:10:14.752Z,45.73
2023-04-12T12:12:26.427Z,43.18
2023-04-12T12:14:32.725Z,40.99
2023-04-12T12:16:36.611Z,41.90
2023-04-12T12:18:41.625Z,41.07
2023-04-12T12:20:49.020Z,44.49
2023-04-12T12:23:04.387Z,45.78
2023-04-12T12:25:11.156Z,44.94
2023-04-12T12:27:14.471Z,45.16
2023-04-12T12:29:20.455Z,43.17
2023-04-12T12:31:24.511Z,41.79
2023-04-12T12:33:46.519Z,43.90
2023-04-12T12:35:56.271Z,42.22
2023-04-12T12:37:59.398Z,42.50
2023-04-12T12:40:10.716Z,42.22
2023-04-12T12:42:14.999Z,42.42
2023-04-12T12:44:20.116Z,43.30
2023-04-12T12:46:24.020Z,45.31
2023-04-12T12:48:26.825Z,45.79
2023-04-12T12:50:31.048Z,44.80
2023-04-12T12:52:34.939Z,44.50
2023-04-12T12:54:41.467Z,43.24
2023-04-12T12:56:46.333Z,43.53
2023-04-12T12:58:49.359Z,43.73
2023-04-12T13:01:00.578Z,43.11
2023-04-12T13:03:10.669Z,42.96
2023-04-12T13:05:13.714Z,41.62
2023-04-12T13:07:18.879Z,42.63
2023-04-12T13:09:22.199Z,42.01
2023-04-12T13:11:28.090Z,40.41
2023-04-12T13:13:35.772Z,41.45
2023-04-12T13:15:38.969Z,41.08
2023-04-12T13:17:44.912Z,41.70
2023-04-12T13:19:48.059Z,41.04
2023-04-12T13:21:52.604Z,41.64
2023-04-12T13:23:56.241Z,41.45
2023-04-12T13:26:00.765Z,39.69
2023-04-12T13:28:04.608Z,38.95
2023-04-12T13:30:13.532Z,39.68
2023-04-12T13:32:17.396Z,37.91
2023-04-12T13:34:22.647Z,39.25
2023-04-12T13:36:25.928Z,39.90
2023-04-12T13:38:29.233Z,39.39
2023-04-12T13:40:33.438Z,38.60
2023-04-12T13:42:39.155Z,36.96
2023-04-12T13:44:45.510Z,37.72
2023-04-12T13:46:48.668Z,37.39
2023-04-12T13:48:54.934Z,36.86
2023-04-12T13:51:00.170Z,36.61
2023-04-12T13:53:04.041Z,35.47
2023-04-12T13:55:10.020Z,36.79
2023-04-12T13:57:12.701Z,37.97
2023-04-12T13:59:25.824Z,39.21
2023-04-12T14:01:30.641Z,36.40
2023-04-12T14:03:33.475Z,38.90
2023-04-12T14:05:36.115Z,37.94
2023-04-12T14:07:41.017Z,37.02
2023-04-12T14:09:43.960Z,37.58
2023-04-12T14:11:49.960Z,35.72
2023-04-12T14:13:53.518Z,36.40
2023-04-12T14:16:00.123Z,34.72
2023-04-12T14:18:05.513Z,35.42
2023-04-12T14:20:13.890Z,36.17
2023-04-12T14:22:16.595Z,37.57
2023-04-12T14:24:21.786Z,36.62
2023-04-12T14:26:25.128Z,35.79
2023-04-12T14:28:31.361Z,38.08
2023-04-12T14:30:34.684Z,35.74
2023-04-12T14:32:37.601Z,36.34
2023-04-12T14:34:41.516Z,33.38
2023-04-12T14:36:46.878Z,34.61
2023-04-12T14:38:50.130Z,35.23
2023-04-12T14:40:54.845Z,35.74
2023-04-12T14:42:58.125Z,37.12
2023-04-12T14:45:03.155Z,37.99
2023-04-12T14:47:06.046Z,39.68
2023-04-12T14:49:08.868Z,39.09
2023-04-12T14:53:29.154Z,37.01
2023-04-12T14:55:34.215Z,37.78
2023-04-12T14:57:42.806Z,37.28
2023-04-12T14:59:49.046Z,37.02
2023-04-12T15:01:53.114Z,39.70
2023-04-12T15:03:56.584Z,38.55
2023-04-12T15:05:59.900Z,37.61
2023-04-12T15:08:03.722Z,38.04
2023-04-12T15:10:07.414Z,38.13
2023-04-12T15:12:10.315Z,37.50
2023-04-12T15:14:18.984Z,38.66
2023-04-12T15:16:22.061Z,40.25
2023-04-12T15:18:25.089Z,39.50
2023-04-12T15:20:29.962Z,41.86
2023-04-12T15:22:35.939Z,41.72
2023-04-12T15:24:40.374Z,42.08
2023-04-12T15:26:43.165Z,42.95
2023-04-12T15:28:46.216Z,41.38
2023-04-12T15:30:53.566Z,43.87
2023-04-12T15:32:56.244Z,42.21
2023-04-12T15:34:59.408Z,40.95
2023-04-12T15:37:09.628Z,41.53
2023-04-12T15:39:13.498Z,42.31
2023-04-12T15:43:35.011Z,42.08
2023-04-12T15:45:40.693Z,43.63
2023-04-12T15:47:46.002Z,43.60
2023-04-12T15:49:48.767Z,42.28
2023-04-12T15:51:52.060Z,40.97
2023-04-12T15:53:54.817Z,40.89
2023-04-12T15:56:00.809Z,41.96
2023-04-12T15:58:04.372Z,42.84
2023-04-12T16:00:24.275Z,44.87
2023-04-12T16:02:28.280Z,44.02
2023-04-12T16:04:34.707Z,42.43
2023-04-12T16:06:42.721Z,42.00
2023-04-12T16:08:48.023Z,41.64
2023-04-12T16:10:53.082Z,43.69
2023-04-12T16:12:57.435Z,46.42
2023-04-12T16:15:04.629Z,46.44
2023-04-12T16:17:11.790Z,43.92
2023-04-12T16:19:14.899Z,45.07
2023-04-12T16:21:23.041Z,46.59
2023-04-12T16:23:26.380Z,43.10
2023-04-12T16:25:29.670Z,43.81
2023-04-12T16:27:33.953Z,43.96
2023-04-12T16:29:37.073Z,44.31
2023-04-12T16:31:39.827Z,44.82
2023-04-12T16:33:45.229Z,44.60
2023-04-12T16:35:50.952Z,43.94
2023-04-12T16:37:57.775Z,44.02
2023-04-12T16:40:01.511Z,47.45
2023-04-12T16:42:07.883Z,44.93
2023-04-12T16:44:12.937Z,45.44
2023-04-12T16:46:17.843Z,46.34
2023-04-12T16:48:23.045Z,48.00
2023-04-12T16:50:32.008Z,43.79
2023-04-12T16:52:41.982Z,48.81
2023-04-12T16:54:46.656Z,45.62
2023-04-12T16:56:49.801Z,47.31
2023-04-12T16:58:52.506Z,51.09
2023-04-12T17:00:55.042Z,51.06
2023-04-12T17:02:57.751Z,53.29
2023-04-12T17:05:00.602Z,53.14
2023-04-12T17:07:03.451Z,48.66
2023-04-12T17:09:05.974Z,56.46
2023-04-12T17:11:10.122Z,55.12
2023-04-12T17:13:13.456Z,50.90
2023-04-12T17:15:17.721Z,54.74
2023-04-12T17:17:20.611Z,55.89
2023-04-12T17:19:23.315Z,57.14
2023-04-12T17:21:26.658Z,57.40
2023-04-12T17:23:29.664Z,59.57
2023-04-12T17:25:32.348Z,55.44
2023-04-12T17:27:37.744Z,56.10
2023-04-12T17:29:40.377Z,56.63
2023-04-12T17:31:43.148Z,55.17
2023-04-12T17:33:45.677Z,55.83
2023-04-12T17:35:48.249Z,55.31
2023-04-12T17:37:51.186Z,55.77
2023-04-12T17:39:54.110Z,59.88
2023-04-12T17:41:56.564Z,61.33
2023-04-12T17:44:00.928Z,64.51
2023-04-12T17:46:04.339Z,61.67
2023-04-12T17:48:09.017Z,64.54
2023-04-12T17:50:12.007Z,64.02
2023-04-12T17:52:14.763Z,68.20
2023-04-12T17:54:17.316Z,71.22
2023-04-12T17:56:20.813Z,72.35
2023-04-12T17:58:23.414Z,70.54
2023-04-12T18:00:27.397Z,70.16
2023-04-12T18:02:30.076Z,70.40
2023-04-12T18:04:32.893Z,70.83
2023-04-12T18:06:35.330Z,70.07
2023-04-12T18:08:38.948Z,69.54
2023-04-12T18:10:41.367Z,70.87
2023-04-12T18:12:44.494Z,70.62
2023-04-12T18:14:47.079Z,70.45
2023-04-12T18:16:51.289Z,70.65
2023-04-12T18:18:55.176Z,70.09
2023-04-12T18:20:57.808Z,70.37
2023-04-12T18:23:00.269Z,70.56
2023-04-12T18:25:03.127Z,71.16
2023-04-12T18:27:06.691Z,72.56
2023-04-12T18:29:12.067Z,72.47
2023-04-12T18:31:14.748Z,72.06
2023-04-12T18:33:18.829Z,71.86
2023-04-12T18:35:21.338Z,71.99
2023-04-12T18:37:23.880Z,69.96
2023-04-12T18:39:26.540Z,75.24
2023-04-12T18:41:29.470Z,74.01
2023-04-12T18:43:32.081Z,73.45
2023-04-12T18:45:38.601Z,74.25
2023-04-12T18:47:41.145Z,75.45
2023-04-12T18:49:46.184Z,75.91
2023-04-12T18:51:48.691Z,76.69
2023-04-12T18:53:51.752Z,75.82
2023-04-12T18:55:54.310Z,76.26
2023-04-12T18:57:57.092Z,76.26
2023-04-12T18:59:59.761Z,75.73
2023-04-12T19:02:02.509Z,75.53
2023-04-12T19:04:06.086Z,74.36
2023-04-12T19:06:11.029Z,76.11
2023-04-12T19:08:14.268Z,74.83
2023-04-12T19:10:17.786Z,73.49
2023-04-12T19:12:20.917Z,73.64
2023-04-12T19:14:23.797Z,73.51
2023-04-12T19:16:26.655Z,73.66
2023-04-12T19:18:30.463Z,74.83
2023-04-12T19:20:33.041Z,74.53
2023-04-12T19:22:37.530Z,74.61
2023-04-12T19:24:40.100Z,75.69
2023-04-12T19:26:47.382Z,74.99
2023-04-12T19:28:52.661Z,73.91
2023-04-12T19:30:55.441Z,75.33
2023-04-12T19:32:58.388Z,74.76
2023-04-12T19:35:01.333Z,73.31
2023-04-12T19:37:03.755Z,73.71
2023-04-12T19:39:07.708Z,74.47
2023-04-12T19:41:10.354Z,73.72
2023-04-12T19:43:16.772Z,74.37
2023-04-12T19:45:19.271Z,74.78
2023-04-12T19:47:22.195Z,74.73
2023-04-12T19:49:24.734Z,74.57
2023-04-12T19:51:27.419Z,74.12
2023-04-12T19:53:29.745Z,74.36
2023-04-12T19:55:33.866Z,74.16
2023-04-12T19:57:38.865Z,75.38
2023-04-12T19:59:41.359Z,73.13
2023-04-12T20:01:49.892Z,73.84
2023-04-12T20:03:52.373Z,73.69
2023-04-12T20:05:54.835Z,72.27
2023-04-12T20:07:57.603Z,73.24
2023-04-12T20:10:00.808Z,73.01
2023-04-12T20:12:07.009Z,73.49
2023-04-12T20:14:09.613Z,73.93
2023-04-12T20:16:12.163Z,74.05
2023-04-12T20:18:14.623Z,74.36
2023-04-12T20:20:17.656Z,74.67
2023-04-12T20:22:22.183Z,76.03
2023-04-12T20:24:25.880Z,74.86
2023-04-12T20:26:28.625Z,74.79
2023-04-12T20:28:32.656Z,74.46
2023-04-12T20:30:36.829Z,72.95
2023-04-12T20:32:39.494Z,73.98
2023-04-12T20:34:46.809Z,73.89
2023-04-12T20:36:49.845Z,75.62
2023-04-12T20:38:52.956Z,75.04
2023-04-12T20:40:57.000Z,74.54
2023-04-12T20:43:00.201Z,75.31
2023-04-12T20:45:04.398Z,75.32
2023-04-12T20:47:07.579Z,74.74
2023-04-12T20:49:10.646Z,73.30
2023-04-12T20:51:17.246Z,74.26
2023-04-12T20:53:19.758Z,73.16
2023-04-12T20:55:25.445Z,73.72
2023-04-12T20:57:27.971Z,75.32
2023-04-12T20:59:30.698Z,74.26
2023-04-12T21:01:53.335Z,73.14
2023-04-12T21:03:59.891Z,73.96
2023-04-12T21:06:02.885Z,75.58
2023-04-12T21:08:07.755Z,73.71
2023-04-12T21:10:12.529Z,74.65
2023-04-12T21:12:14.815Z,74.12
2023-04-12T21:14:17.388Z,75.24
2023-04-12T21:16:20.158Z,75.08
2023-04-12T21:18:22.680Z,75.75
2023-04-12T21:20:26.996Z,75.69
2023-04-12T21:22:29.437Z,75.61
2023-04-12T21:24:35.708Z,75.75
2023-04-12T21:26:38.339Z,77.03
2023-04-12T21:28:41.339Z,77.00
2023-04-12T21:30:44.853Z,77.08
2023-04-12T21:32:47.423Z,78.29
2023-04-12T21:34:50.540Z,78.36
2023-04-12T21:36:55.470Z,78.04
2023-04-12T21:38:59.439Z,78.74
2023-04-12T21:41:05.265Z,78.25
2023-04-12T21:43:08.249Z,78.30
2023-04-12T21:45:11.439Z,78.23
2023-04-12T21:47:13.743Z,79.08
2023-04-12T21:49:16.091Z,79.98
2023-04-12T21:51:18.553Z,79.98
2023-04-12T21:53:22.240Z,79.67
2023-04-12T21:55:28.610Z,79.33
2023-04-12T21:57:31.142Z,79.84
2023-04-12T21:59:33.430Z,80.63
2023-04-12T22:01:36.249Z,80.62
2023-04-12T22:03:38.777Z,80.77
2023-04-12T22:05:42.067Z,81.27
2023-04-12T22:07:45.619Z,80.96
2023-04-12T22:09:50.186Z,81.19
2023-04-12T22:11:52.517Z,81.83
2023-04-12T22:13:54.819Z,81.24
2023-04-12T22:15:58.169Z,81.15
2023-04-12T22:18:00.517Z,81.64
2023-04-12T22:20:04.227Z,82.15
2023-04-12T22:22:06.755Z,81.54
2023-04-12T22:24:09.263Z,82.27
2023-04-12T22:26:13.060Z,81.80
2023-04-12T22:28:17.320Z,82.42
2023-04-12T22:30:20.518Z,81.83
2023-04-12T22:32:22.984Z,82.26
2023-04-12T22:34:25.878Z,82.21
2023-04-12T22:36:29.582Z,81.87
2023-04-12T22:38:32.507Z,82.32
2023-04-12T22:40:34.767Z,82.32
2023-04-12T22:42:38.587Z,82.50
2023-04-12T22:44:40.899Z,81.84
2023-04-12T22:46:48.470Z,81.84
2023-04-12T22:48:51.017Z,82.44
2023-04-12T22:50:54.801Z,82.26
2023-04-12T22:52:58.067Z,81.93
2023-04-12T22:55:00.547Z,81.84
2023-04-12T22:57:03.077Z,81.87
2023-04-12T22:59:07.027Z,82.60
2023-04-12T23:01:11.127Z,83.34
2023-04-12T23:03:13.684Z,83.20
2023-04-12T23:05:16.750Z,83.45
2023-04-12T23:07:19.303Z,83.98
2023-04-12T23:09:22.020Z,83.42
2023-04-12T23:11:24.638Z,83.07
2023-04-12T23:13:30.005Z,83.47
2023-04-12T23:15:35.361Z,83.74
2023-04-12T23:17:38.067Z,83.46
2023-04-12T23:19:40.605Z,83.61
2023-04-12T23:21:44.114Z,83.89
2023-04-12T23:23:46.710Z,84.18
2023-04-12T23:25:49.385Z,83.34
2023-04-12T23:27:51.889Z,83.54
2023-04-12T23:29:54.576Z,83.84
2023-04-12T23:31:58.778Z,83.62
2023-04-12T23:34:06.467Z,84.37
2023-04-12T23:36:10.803Z,84.10
2023-04-12T23:38:23.446Z,84.00
2023-04-12T23:40:25.898Z,83.96
2023-04-12T23:42:28.968Z,83.48
2023-04-12T23:44:31.913Z,83.91
2023-04-12T23:46:35.252Z,84.09
2023-04-12T23:48:39.329Z,84.94
2023-04-12T23:50:41.891Z,85.23
2023-04-12T23:52:44.392Z,85.27
2023-04-12T23:54:47.140Z,85.00
2023-04-12T23:56:49.606Z,84.85
2023-04-12T23:58:52.577Z,84.83
